Time;durP1;ratioP1;P1;durP2;ratioP2;P2;SDS_P1;SDS_P2;PMS_P1;PMS_P2;Temp;Humidity;BMP_temperature;BMP_pressure;BME280_temperature;BME280_humidity;BME280_pressure;Samples;Min_cycle;Max_cycle;Signal;HPM_P1;HPM_P2
2021/12/20 00:01:15;;;;;;;0.10;0.10;;;;;;;;;;4197370;28;20101;-35
2021/12/20 00:03:17;;;;;;;0.40;0.08;;;;;;;;;;4197122;28;20358;-35
2021/12/20 00:05:19;;;;;;;0.40;0.00;;;;;;;;;;4195900;28;20508;-36
2021/12/20 00:07:20;;;;;;;0.22;0.10;;;;;;;;;;4196782;28;20049;-35
2021/12/20 00:09:21;;;;;;;0.25;0.20;;;;;;;;;;4197046;28;20423;-35
2021/12/20 00:11:22;;;;;;;0.10;0.10;;;;;;;;;;4197058;28;20112;-35
2021/12/20 00:13:23;;;;;;;0.32;0.10;;;;;;;;;;4196956;28;20062;-35
2021/12/20 00:15:24;;;;;;;0.20;0.20;;;;;;;;;;4197034;28;20059;-35
2021/12/20 00:17:25;;;;;;;0.00;0.00;;;;;;;;;;4197004;28;20052;-35
2021/12/20 00:19:26;;;;;;;0.17;0.10;;;;;;;;;;4195670;28;20550;-36
2021/12/20 00:21:27;;;;;;;0.68;0.10;;;;;;;;;;4195786;28;20048;-35
2021/12/20 00:23:28;;;;;;;0.20;0.10;;;;;;;;;;4196358;28;20102;-35
2021/12/20 00:25:29;;;;;;;0.17;0.10;;;;;;;;;;4197055;28;20494;-35
2021/12/20 00:27:30;;;;;;;0.10;0.05;;;;;;;;;;4196861;28;20116;-35
2021/12/20 00:29:31;;;;;;;0.20;0.10;;;;;;;;;;4197019;28;20049;-35
2021/12/20 00:31:31;;;;;;;0.10;0.10;;;;;;;;;;4196918;28;20087;-35
2021/12/20 00:33:33;;;;;;;0.80;0.10;;;;;;;;;;4196862;28;20105;-36
2021/12/20 00:35:34;;;;;;;0.00;0.00;;;;;;;;;;4195730;28;20059;-35
2021/12/20 00:42:16;;;;;;;0.10;0.10;;;;;;;;;;4196705;28;20068;-35
2021/12/20 00:44:17;;;;;;;0.10;0.10;;;;;;;;;;4196917;28;20045;-35
2021/12/20 00:46:18;;;;;;;0.10;0.10;;;;;;;;;;4196807;28;20117;-36
2021/12/20 00:48:19;;;;;;;0.28;0.10;;;;;;;;;;4195511;28;20080;-36
2021/12/20 00:50:21;;;;;;;1.90;0.20;;;;;;;;;;4195708;28;20078;-36
2021/12/20 00:52:22;;;;;;;0.63;0.20;;;;;;;;;;4196234;28;20423;-36
2021/12/20 00:54:23;;;;;;;0.25;0.10;;;;;;;;;;4196677;28;20045;-37
2021/12/20 00:56:24;;;;;;;0.40;0.20;;;;;;;;;;4197086;28;20144;-36
2021/12/20 00:58:24;;;;;;;1.27;0.10;;;;;;;;;;4196623;28;20095;-36
2021/12/20 01:00:27;;;;;;;0.10;0.10;;;;;;;;;;4196998;28;20056;-37
2021/12/20 01:02:28;;;;;;;0.52;0.10;;;;;;;;;;4196560;28;20049;-36
2021/12/20 01:04:29;;;;;;;0.00;0.00;;;;;;;;;;4196597;28;20095;-36
2021/12/20 01:06:30;;;;;;;0.00;0.00;;;;;;;;;;4196628;28;20048;-35
2021/12/20 01:08:35;;;;;;;0.17;0.10;;;;;;;;;;4196211;28;20095;-36
2021/12/20 01:10:38;;;;;;;0.75;0.10;;;;;;;;;;4196700;28;20421;-36
2021/12/20 01:12:45;;;;;;;0.30;0.20;;;;;;;;;;4196424;28;20389;-36
2021/12/20 01:14:46;;;;;;;0.30;0.13;;;;;;;;;;4195405;28;20049;-36
2021/12/20 01:16:48;;;;;;;0.45;0.10;;;;;;;;;;4196493;28;20052;-36
2021/12/20 01:18:49;;;;;;;0.32;0.10;;;;;;;;;;4196486;28;20377;-36
2021/12/20 01:20:50;;;;;;;0.20;0.15;;;;;;;;;;4196801;28;20098;-36
2021/12/20 01:22:51;;;;;;;0.30;0.10;;;;;;;;;;4195969;28;20053;-36
2021/12/20 01:24:52;;;;;;;0.10;0.10;;;;;;;;;;4196771;28;20094;-36
2021/12/20 01:26:53;;;;;;;0.20;0.10;;;;;;;;;;4196752;28;20102;-36
2021/12/20 01:28:54;;;;;;;0.10;0.10;;;;;;;;;;4196821;28;20575;-36
2021/12/20 01:30:55;;;;;;;0.35;0.10;;;;;;;;;;4196771;28;20105;-36
2021/12/20 01:32:56;;;;;;;0.10;0.10;;;;;;;;;;4198448;28;20048;-36
2021/12/20 01:34:57;;;;;;;0.10;0.10;;;;;;;;;;4199324;28;20095;-37
2021/12/20 01:36:58;;;;;;;0.20;0.10;;;;;;;;;;4198846;28;20063;-36
2021/12/20 01:38:59;;;;;;;0.10;0.10;;;;;;;;;;4199267;28;20052;-36
2021/12/20 01:41:00;;;;;;;0.28;0.10;;;;;;;;;;4198146;28;20048;-36
2021/12/20 01:43:03;;;;;;;0.10;0.00;;;;;;;;;;4199320;28;20593;-37
2021/12/20 01:45:05;;;;;;;0.10;0.10;;;;;;;;;;4199323;28;20374;-36
2021/12/20 01:47:08;;;;;;;0.20;0.10;;;;;;;;;;4199392;28;20056;-35
2021/12/20 01:49:12;;;;;;;0.22;0.13;;;;;;;;;;4199128;28;20048;-36
2021/12/20 01:51:32;;;;;;;1.63;0.10;;;;;;;;;;4199169;28;20044;-35
2021/12/20 01:53:33;;;;;;;;;;;;;;;;;;4199270;28;20052;-36
2021/12/20 01:55:34;;;;;;;0.20;0.10;;;;;;;;;;4199068;28;19987;-36
2021/12/20 01:57:35;;;;;;;0.10;0.10;;;;;;;;;;4187167;28;20118;-36
2021/12/20 01:59:38;;;;;;;0.10;0.03;;;;;;;;;;4181287;28;20405;-35
2021/12/20 02:01:41;;;;;;;0.00;0.00;;;;;;;;;;4182375;28;20099;-36
2021/12/20 02:03:45;;;;;;;0.20;0.10;;;;;;;;;;4181271;28;20052;-36
2021/12/20 02:05:51;;;;;;;0.17;0.10;;;;;;;;;;4182679;28;20057;-36
2021/12/20 02:08:03;;;;;;;0.10;0.10;;;;;;;;;;4181022;28;20060;-35
2021/12/20 02:10:04;;;;;;;0.10;0.10;;;;;;;;;;4181549;28;20053;-39
2021/12/20 02:12:05;;;;;;;0.05;0.05;;;;;;;;;;4182418;28;20163;-36
2021/12/20 02:14:07;;;;;;;0.30;0.10;;;;;;;;;;4182343;28;20076;-35
2021/12/20 02:16:08;;;;;;;0.00;0.00;;;;;;;;;;4185901;28;20466;-37
2021/12/20 02:18:09;;;;;;;0.40;0.40;;;;;;;;;;4198615;28;20099;-36
2021/12/20 02:20:23;;;;;;;0.10;0.10;;;;;;;;;;4198706;28;20044;-35
2021/12/20 02:22:24;;;;;;;0.22;0.10;;;;;;;;;;4198093;28;20105;-36
2021/12/20 02:24:26;;;;;;;0.00;0.00;;;;;;;;;;4198648;28;20044;-36
2021/12/20 02:26:27;;;;;;;0.40;0.30;;;;;;;;;;4198589;28;20083;-36
2021/12/20 02:28:35;;;;;;;0.10;0.10;;;;;;;;;;4197166;28;20098;-36
2021/12/20 02:30:48;;;;;;;0.13;0.10;;;;;;;;;;4198473;28;20055;-36
2021/12/20 02:37:29;;;;;;;;;;;;;;;;;;4198554;28;20098;-36
2021/12/20 02:39:30;;;;;;;0.43;0.17;;;;;;;;;;4198406;28;19973;-36
2021/12/20 02:41:33;;;;;;;0.10;0.10;;;;;;;;;;4198582;28;20053;-36
2021/12/20 02:43:37;;;;;;;0.20;0.10;;;;;;;;;;4198154;28;20067;-35
2021/12/20 02:45:39;;;;;;;0.25;0.08;;;;;;;;;;4198429;28;20053;-36
2021/12/20 02:47:42;;;;;;;0.10;0.10;;;;;;;;;;4198223;28;20056;-36
2021/12/20 02:49:44;;;;;;;0.20;0.20;;;;;;;;;;4198204;28;20485;-36
2021/12/20 02:51:45;;;;;;;0.30;0.10;;;;;;;;;;4197752;28;20059;-36
2021/12/20 02:53:46;;;;;;;0.10;0.10;;;;;;;;;;4198218;28;20437;-35
2021/12/20 02:55:47;;;;;;;0.10;0.10;;;;;;;;;;4198518;28;20102;-35
2021/12/20 02:57:48;;;;;;;0.10;0.10;;;;;;;;;;4198054;28;20057;-36
2021/12/20 02:59:49;;;;;;;0.10;0.10;;;;;;;;;;4198123;28;20091;-35
2021/12/20 03:01:53;;;;;;;0.10;0.10;;;;;;;;;;4198007;28;20110;-36
2021/12/20 03:03:55;;;;;;;0.10;0.10;;;;;;;;;;4197890;28;20044;-36
2021/12/20 03:05:56;;;;;;;0.03;0.03;;;;;;;;;;4198009;28;20098;-36
2021/12/20 03:07:57;;;;;;;0.10;0.10;;;;;;;;;;4197466;28;20368;-36
2021/12/20 03:10:02;;;;;;;1.65;0.17;;;;;;;;;;4198019;28;20102;-35
2021/12/20 03:12:05;;;;;;;0.15;0.15;;;;;;;;;;4198048;28;20053;-37
2021/12/20 03:14:18;;;;;;;0.20;0.10;;;;;;;;;;4197823;28;20056;-36
2021/12/20 03:16:19;;;;;;;0.10;0.00;;;;;;;;;;4197993;28;20071;-36
2021/12/20 03:18:20;;;;;;;0.13;0.10;;;;;;;;;;4197671;28;20480;-36
2021/12/20 03:20:22;;;;;;;0.10;0.10;;;;;;;;;;4197808;28;20098;-36
2021/12/20 03:22:23;;;;;;;0.20;0.10;;;;;;;;;;4197129;28;20064;-35
2021/12/20 03:24:24;;;;;;;0.00;0.00;;;;;;;;;;4197548;28;20098;-35
2021/12/20 03:26:26;;;;;;;0.22;0.13;;;;;;;;;;4197947;28;20044;-36
2021/12/20 03:28:26;;;;;;;0.10;0.10;;;;;;;;;;4197810;28;20045;-35
2021/12/20 03:30:28;;;;;;;0.10;0.10;;;;;;;;;;4196587;28;20500;-35
2021/12/20 03:32:28;;;;;;;0.00;0.00;;;;;;;;;;4197523;28;20041;-36
2021/12/20 03:34:29;;;;;;;0.10;0.10;;;;;;;;;;4197482;28;20095;-35
2021/12/20 03:36:30;;;;;;;0.30;0.10;;;;;;;;;;4197519;28;20052;-36
2021/12/20 03:38:31;;;;;;;0.55;0.10;;;;;;;;;;4196946;28;20090;-36
2021/12/20 03:40:32;;;;;;;1.13;0.17;;;;;;;;;;4197395;28;20090;-35
2021/12/20 03:42:34;;;;;;;0.30;0.20;;;;;;;;;;4197133;28;20051;-36
2021/12/20 03:44:43;;;;;;;0.15;0.10;;;;;;;;;;4197632;28;20053;-35
2021/12/20 03:46:44;;;;;;;0.20;0.13;;;;;;;;;;4196336;28;20052;-35
2021/12/20 03:48:45;;;;;;;0.10;0.10;;;;;;;;;;4197385;28;20488;-35
2021/12/20 03:50:46;;;;;;;0.00;0.00;;;;;;;;;;4197339;28;20117;-35
2021/12/20 03:52:47;;;;;;;0.00;0.00;;;;;;;;;;4196841;28;20049;-35
2021/12/20 03:54:48;;;;;;;0.22;0.10;;;;;;;;;;4196837;28;20095;-35
2021/12/20 03:56:49;;;;;;;0.10;0.10;;;;;;;;;;4195887;28;20097;-35
2021/12/20 03:58:50;;;;;;;0.40;0.20;;;;;;;;;;4197029;28;20346;-35
2021/12/20 04:00:51;;;;;;;0.10;0.10;;;;;;;;;;4197304;28;20048;-35
2021/12/20 04:02:53;;;;;;;0.20;0.20;;;;;;;;;;4195817;28;20056;-35
2021/12/20 04:04:54;;;;;;;0.00;0.00;;;;;;;;;;4197390;28;20052;-35
2021/12/20 04:06:55;;;;;;;0.30;0.20;;;;;;;;;;4196950;28;20086;-35
2021/12/20 04:08:56;;;;;;;0.10;0.10;;;;;;;;;;4197182;28;20041;-36
2021/12/20 04:10:57;;;;;;;0.75;0.10;;;;;;;;;;4197196;28;20052;-36
2021/12/20 04:12:58;;;;;;;0.10;0.10;;;;;;;;;;4197039;28;20052;-35
2021/12/20 04:14:59;;;;;;;0.10;0.00;;;;;;;;;;4195905;28;20468;-35
2021/12/20 04:17:00;;;;;;;0.10;0.10;;;;;;;;;;4196972;28;20091;-36
2021/12/20 04:19:02;;;;;;;0.10;0.10;;;;;;;;;;4195745;28;20095;-36
2021/12/20 04:21:03;;;;;;;0.00;0.00;;;;;;;;;;4197048;28;20472;-35
2021/12/20 04:23:04;;;;;;;0.03;0.00;;;;;;;;;;4196405;28;20060;-36
2021/12/20 04:25:05;;;;;;;0.10;0.10;;;;;;;;;;4197043;28;20099;-36
2021/12/20 04:27:06;;;;;;;0.13;0.10;;;;;;;;;;4196829;28;20404;-36
2021/12/20 04:29:07;;;;;;;0.13;0.10;;;;;;;;;;4195816;28;20052;-36
2021/12/20 04:31:08;;;;;;;0.52;0.13;;;;;;;;;;4197218;28;20094;-36
2021/12/20 04:33:09;;;;;;;0.90;0.13;;;;;;;;;;4196888;28;20110;-36
2021/12/20 04:35:11;;;;;;;0.05;0.05;;;;;;;;;;4196925;28;20111;-36
2021/12/20 04:37:12;;;;;;;0.38;0.03;;;;;;;;;;4196381;28;20052;-37
2021/12/20 04:39:17;;;;;;;0.25;0.10;;;;;;;;;;4197032;28;20484;-36
2021/12/20 04:41:19;;;;;;;0.10;0.10;;;;;;;;;;4196899;28;20052;-36
2021/12/20 04:43:20;;;;;;;0.20;0.10;;;;;;;;;;4196599;28;20485;-36
2021/12/20 04:45:21;;;;;;;0.13;0.10;;;;;;;;;;4196829;28;20044;-36
2021/12/20 04:47:22;;;;;;;0.13;0.10;;;;;;;;;;4196995;28;20048;-37
2021/12/20 04:49:24;;;;;;;0.20;0.10;;;;;;;;;;4196786;28;20049;-36
2021/12/20 04:51:25;;;;;;;0.22;0.10;;;;;;;;;;4196966;28;20098;-36
2021/12/20 04:53:26;;;;;;;0.30;0.20;;;;;;;;;;4196500;28;20091;-36
2021/12/20 04:55:27;;;;;;;0.15;0.10;;;;;;;;;;4197003;28;20166;-36
2021/12/20 04:57:28;;;;;;;0.50;0.17;;;;;;;;;;4196599;28;20118;-36
2021/12/20 04:59:29;;;;;;;0.15;0.10;;;;;;;;;;4196731;28;20084;-36
2021/12/20 05:01:30;;;;;;;0.10;0.10;;;;;;;;;;4196937;28;20102;-36
2021/12/20 05:03:31;;;;;;;0.32;0.10;;;;;;;;;;4196824;28;20167;-36
2021/12/20 05:05:32;;;;;;;0.52;0.17;;;;;;;;;;4196898;28;20052;-35
2021/12/20 05:07:33;;;;;;;0.68;0.10;;;;;;;;;;4197667;28;20040;-36
2021/12/20 05:09:49;;;;;;;0.30;0.10;;;;;;;;;;4199795;28;20045;-36
2021/12/20 05:11:58;;;;;;;0.20;0.10;;;;;;;;;;4199635;28;20481;-35
2021/12/20 05:13:59;;;;;;;1.65;0.10;;;;;;;;;;4199807;28;20063;-36
2021/12/20 05:16:00;;;;;;;2.17;0.30;;;;;;;;;;4199588;28;20056;-37
2021/12/20 05:18:01;;;;;;;0.25;0.10;;;;;;;;;;4199561;28;20095;-36
2021/12/20 05:20:03;;;;;;;0.47;0.20;;;;;;;;;;4199852;28;20053;-36
2021/12/20 05:22:05;;;;;;;0.10;0.10;;;;;;;;;;4199055;28;20441;-36
2021/12/20 05:24:06;;;;;;;0.47;0.10;;;;;;;;;;4199584;28;20377;-36
2021/12/20 05:26:07;;;;;;;0.13;0.13;;;;;;;;;;4199568;28;20055;-37
2021/12/20 05:28:08;;;;;;;0.45;0.10;;;;;;;;;;4199427;28;20106;-36
2021/12/20 05:30:10;;;;;;;0.68;0.08;;;;;;;;;;4199606;28;20101;-36
2021/12/20 05:32:11;;;;;;;0.30;0.13;;;;;;;;;;4199509;28;20098;-36
2021/12/20 05:34:12;;;;;;;2.85;0.10;;;;;;;;;;4199661;28;20073;-36
2021/12/20 05:36:13;;;;;;;0.15;0.15;;;;;;;;;;4199426;28;20095;-36
2021/12/20 05:38:14;;;;;;;0.47;0.20;;;;;;;;;;4198962;28;20098;-36
2021/12/20 05:40:15;;;;;;;0.32;0.10;;;;;;;;;;4199102;28;20048;-36
2021/12/20 05:42:16;;;;;;;0.50;0.13;;;;;;;;;;4199108;28;20086;-35
2021/12/20 05:44:17;;;;;;;0.20;0.20;;;;;;;;;;4199035;28;20051;-35
2021/12/20 05:46:18;;;;;;;0.20;0.10;;;;;;;;;;4199070;28;20133;-36
2021/12/20 05:48:19;;;;;;;0.85;0.32;;;;;;;;;;4198813;28;20475;-35
2021/12/20 05:50:21;;;;;;;0.40;0.20;;;;;;;;;;4199167;28;20052;-35
2021/12/20 05:52:22;;;;;;;0.30;0.20;;;;;;;;;;4214005;28;20052;-36
2021/12/20 05:54:23;;;;;;;0.50;0.10;;;;;;;;;;4198897;28;20105;-36
2021/12/20 05:56:24;;;;;;;0.15;0.10;;;;;;;;;;4198953;28;20544;-35
2021/12/20 05:58:25;;;;;;;1.25;0.25;;;;;;;;;;4199128;28;20110;-36
2021/12/20 06:00:26;;;;;;;0.10;0.10;;;;;;;;;;4198974;28;20052;-36
2021/12/20 06:02:27;;;;;;;0.10;0.10;;;;;;;;;;4198934;28;20058;-36
2021/12/20 06:04:28;;;;;;;0.52;0.10;;;;;;;;;;4199123;28;20102;-36
2021/12/20 06:06:31;;;;;;;0.10;0.10;;;;;;;;;;4199232;28;20056;-36
2021/12/20 06:08:32;;;;;;;0.10;0.10;;;;;;;;;;4198441;28;20044;-37
2021/12/20 06:10:33;;;;;;;0.10;0.10;;;;;;;;;;4199108;28;20051;-36
2021/12/20 06:12:35;;;;;;;0.65;0.10;;;;;;;;;;4198708;28;20052;-36
2021/12/20 06:14:36;;;;;;;0.10;0.10;;;;;;;;;;4198685;28;20098;-36
2021/12/20 06:16:37;;;;;;;0.10;0.10;;;;;;;;;;4198555;28;20056;-36
2021/12/20 06:18:38;;;;;;;0.32;0.13;;;;;;;;;;4198218;28;20151;-36
2021/12/20 06:20:42;;;;;;;0.20;0.20;;;;;;;;;;4198652;28;20052;-35
2021/12/20 06:22:43;;;;;;;1.02;0.20;;;;;;;;;;4197687;28;20447;-36
2021/12/20 06:24:44;;;;;;;0.73;0.20;;;;;;;;;;4198513;28;20053;-35
2021/12/20 06:26:45;;;;;;;0.15;0.10;;;;;;;;;;4198434;28;20091;-36
2021/12/20 06:28:46;;;;;;;0.10;0.10;;;;;;;;;;4198446;28;20370;-36
2021/12/20 06:30:48;;;;;;;0.15;0.15;;;;;;;;;;4198488;28;20090;-35
2021/12/20 06:32:49;;;;;;;0.28;0.20;;;;;;;;;;4193603;28;20064;-36
2021/12/20 06:34:50;;;;;;;0.32;0.20;;;;;;;;;;4167737;28;20045;-35
2021/12/20 06:36:51;;;;;;;0.20;0.20;;;;;;;;;;4199900;28;20056;-36
2021/12/20 06:38:53;;;;;;;0.10;0.10;;;;;;;;;;4191999;28;20055;-36
2021/12/20 06:40:54;;;;;;;0.52;0.20;;;;;;;;;;4200674;28;20060;-36
2021/12/20 06:42:55;;;;;;;0.20;0.10;;;;;;;;;;4191107;28;20509;-35
2021/12/20 06:44:56;;;;;;;0.20;0.10;;;;;;;;;;4197732;28;20048;-35
2021/12/20 06:46:57;;;;;;;0.20;0.20;;;;;;;;;;4197932;28;20052;-36
2021/12/20 06:48:59;;;;;;;0.50;0.20;;;;;;;;;;4193180;28;20049;-36
2021/12/20 06:51:00;;;;;;;0.30;0.10;;;;;;;;;;4198223;28;20492;-36
2021/12/20 06:53:02;;;;;;;0.95;0.17;;;;;;;;;;4200826;28;20105;-37
2021/12/20 06:55:03;;;;;;;0.17;0.10;;;;;;;;;;4196972;28;20045;-37
2021/12/20 06:57:04;;;;;;;0.00;0.00;;;;;;;;;;4198020;28;20413;-36
2021/12/20 06:59:06;;;;;;;0.20;0.20;;;;;;;;;;4201358;28;20044;-35
2021/12/20 07:01:07;;;;;;;0.40;0.20;;;;;;;;;;4183337;28;20402;-35
2021/12/20 07:03:07;;;;;;;0.28;0.10;;;;;;;;;;4191029;28;20377;-35
2021/12/20 07:05:09;;;;;;;0.22;0.10;;;;;;;;;;4189713;28;20078;-36
2021/12/20 07:07:10;;;;;;;0.63;0.10;;;;;;;;;;4190315;28;20105;-35
2021/12/20 07:09:11;;;;;;;0.15;0.10;;;;;;;;;;4193231;28;20044;-35
2021/12/20 07:11:12;;;;;;;0.75;0.20;;;;;;;;;;4192147;28;20072;-35
2021/12/20 07:13:13;;;;;;;0.28;0.10;;;;;;;;;;4193172;28;20101;-36
2021/12/20 07:15:15;;;;;;;0.13;0.10;;;;;;;;;;4194294;28;20056;-35
2021/12/20 07:17:16;;;;;;;0.35;0.20;;;;;;;;;;4186377;28;20044;-36
2021/12/20 07:19:17;;;;;;;4.25;0.20;;;;;;;;;;4189257;28;20066;-35
2021/12/20 07:21:18;;;;;;;0.57;0.20;;;;;;;;;;4189713;28;20129;-37
2021/12/20 07:23:20;;;;;;;0.38;0.25;;;;;;;;;;4186597;28;20081;-35
2021/12/20 07:25:21;;;;;;;0.40;0.17;;;;;;;;;;4186571;28;20041;-37
2021/12/20 07:27:22;;;;;;;4.18;0.20;;;;;;;;;;4189003;28;20053;-36
2021/12/20 07:29:23;;;;;;;1.88;0.10;;;;;;;;;;4186211;28;20145;-35
2021/12/20 07:31:25;;;;;;;1.02;0.20;;;;;;;;;;4185455;28;20053;-34
2021/12/20 07:33:26;;;;;;;0.20;0.10;;;;;;;;;;4191118;28;20521;-36
2021/12/20 07:35:27;;;;;;;0.32;0.17;;;;;;;;;;4187638;28;20143;-34
2021/12/20 07:37:28;;;;;;;0.98;0.22;;;;;;;;;;4189164;28;20109;-35
2021/12/20 07:39:29;;;;;;;1.27;0.30;;;;;;;;;;4186889;28;20051;-34
2021/12/20 07:41:30;;;;;;;0.55;0.17;;;;;;;;;;4189569;28;20556;-34
2021/12/20 07:43:31;;;;;;;0.50;0.30;;;;;;;;;;4191571;28;20052;-34
2021/12/20 07:45:33;;;;;;;0.50;0.20;;;;;;;;;;4190921;28;20109;-35
2021/12/20 07:47:34;;;;;;;2.05;0.22;;;;;;;;;;4188640;28;20047;-36
2021/12/20 07:49:35;;;;;;;0.20;0.20;;;;;;;;;;4189188;28;20078;-38
2021/12/20 07:51:36;;;;;;;1.95;0.40;;;;;;;;;;4186151;28;20048;-34
2021/12/20 07:53:37;;;;;;;0.30;0.30;;;;;;;;;;4185133;28;20044;-36
2021/12/20 07:55:38;;;;;;;1.75;0.57;;;;;;;;;;4180279;28;20495;-35
2021/12/20 07:57:39;;;;;;;0.70;0.35;;;;;;;;;;4187654;28;20145;-36
2021/12/20 07:59:40;;;;;;;0.60;0.15;;;;;;;;;;4183192;28;20193;-36
2021/12/20 08:01:41;;;;;;;0.85;0.38;;;;;;;;;;4182754;28;20153;-37
2021/12/20 08:03:42;;;;;;;0.50;0.20;;;;;;;;;;4177630;28;20567;-35
2021/12/20 08:05:44;;;;;;;0.47;0.20;;;;;;;;;;4177621;28;20060;-34
2021/12/20 08:07:47;;;;;;;0.50;0.30;;;;;;;;;;4173983;28;20519;-34
2021/12/20 08:09:49;;;;;;;0.50;0.30;;;;;;;;;;4184712;28;20052;-33
2021/12/20 08:11:50;;;;;;;0.20;0.20;;;;;;;;;;4185229;28;20110;-35
2021/12/20 08:13:51;;;;;;;0.45;0.40;;;;;;;;;;4166091;28;20062;-35
2021/12/20 08:15:53;;;;;;;1.98;0.45;;;;;;;;;;4190808;28;20060;-35
2021/12/20 08:17:54;;;;;;;0.20;0.20;;;;;;;;;;4184686;28;20457;-35
2021/12/20 08:19:55;;;;;;;0.30;0.20;;;;;;;;;;4187941;28;20057;-35
2021/12/20 08:21:56;;;;;;;0.85;0.30;;;;;;;;;;4176725;28;20057;-35
2021/12/20 08:23:57;;;;;;;0.52;0.20;;;;;;;;;;4184594;28;20529;-35
2021/12/20 08:25:58;;;;;;;0.82;0.47;;;;;;;;;;4187287;28;20504;-35
2021/12/20 08:28:00;;;;;;;1.05;0.30;;;;;;;;;;4181521;28;20121;-35
2021/12/20 08:30:01;;;;;;;1.75;0.47;;;;;;;;;;4196244;28;20172;-34
2021/12/20 08:32:02;;;;;;;0.20;0.20;;;;;;;;;;4206212;28;20518;-35
2021/12/20 08:34:03;;;;;;;1.17;0.32;;;;;;;;;;4200668;28;20063;-35
2021/12/20 08:36:05;;;;;;;0.75;0.45;;;;;;;;;;4201446;28;20131;-36
2021/12/20 08:38:06;;;;;;;0.43;0.30;;;;;;;;;;4190708;28;20421;-35
2021/12/20 08:40:10;;;;;;;0.45;0.40;;;;;;;;;;4185630;28;20191;-35
2021/12/20 08:42:11;;;;;;;1.92;0.40;;;;;;;;;;4210352;28;20326;-35
2021/12/20 08:44:13;;;;;;;1.17;0.50;;;;;;;;;;4211864;28;20051;-35
2021/12/20 08:46:15;;;;;;;2.95;0.60;;;;;;;;;;4209104;28;20043;-34
2021/12/20 08:48:16;;;;;;;1.27;0.50;;;;;;;;;;4207827;28;20277;-34
2021/12/20 08:50:18;;;;;;;1.48;0.73;;;;;;;;;;4203023;28;20056;-35
2021/12/20 08:52:20;;;;;;;0.60;0.60;;;;;;;;;;4206918;28;20373;-37
2021/12/20 08:54:23;;;;;;;1.92;0.70;;;;;;;;;;4207338;28;20113;-34
2021/12/20 08:56:25;;;;;;;1.45;0.70;;;;;;;;;;4203167;28;20342;-34
2021/12/20 08:58:26;;;;;;;1.33;0.60;;;;;;;;;;4203164;28;20101;-35
2021/12/20 09:00:29;;;;;;;1.48;0.70;;;;;;;;;;4204915;28;20052;-34
2021/12/20 09:02:30;;;;;;;1.42;0.90;;;;;;;;;;4201991;28;20071;-34
2021/12/20 09:04:31;;;;;;;1.90;0.63;;;;;;;;;;4198886;28;20769;-34
2021/12/20 09:06:34;;;;;;;1.75;0.98;;;;;;;;;;4177536;28;20041;-34
2021/12/20 09:08:35;;;;;;;0.82;0.70;;;;;;;;;;4204186;28;20383;-35
2021/12/20 09:10:37;;;;;;;1.23;0.70;;;;;;;;;;4206970;28;20085;-34
2021/12/20 09:12:38;;;;;;;1.13;0.60;;;;;;;;;;4191812;28;20067;-34
2021/12/20 09:14:39;;;;;;;1.10;0.60;;;;;;;;;;4204858;28;20105;-34
2021/12/20 09:16:40;;;;;;;1.75;0.73;;;;;;;;;;4210169;28;20044;-35
2021/12/20 09:18:41;;;;;;;2.03;0.60;;;;;;;;;;4209363;28;20064;-35
2021/12/20 09:20:42;;;;;;;1.05;0.70;;;;;;;;;;4192656;28;20147;-34
2021/12/20 09:22:51;;;;;;;1.20;0.60;;;;;;;;;;4212316;28;20056;-34
2021/12/20 09:24:52;;;;;;;1.27;0.65;;;;;;;;;;4212541;28;20055;-34
2021/12/20 09:26:53;;;;;;;1.20;0.90;;;;;;;;;;4210100;28;20052;-35
2021/12/20 09:28:54;;;;;;;1.58;0.70;;;;;;;;;;4206673;28;20067;-35
2021/12/20 09:30:55;;;;;;;2.15;0.60;;;;;;;;;;4191684;28;20144;-35
2021/12/20 09:32:56;;;;;;;1.05;0.63;;;;;;;;;;4201126;28;20135;-36
2021/12/20 09:34:58;;;;;;;1.25;0.60;;;;;;;;;;4211595;28;20059;-35
2021/12/20 09:37:04;;;;;;;0.60;0.40;;;;;;;;;;4210051;28;20052;-35
2021/12/20 09:39:10;;;;;;;1.20;0.70;;;;;;;;;;4200395;28;20055;-35
2021/12/20 09:43:13;;;;;;;1.23;0.65;;;;;;;;;;4206175;28;20406;-34
2021/12/20 09:45:19;;;;;;;1.02;0.60;;;;;;;;;;4212132;28;20056;-36
2021/12/20 09:47:20;;;;;;;0.82;0.57;;;;;;;;;;4207226;28;20036;-36
2021/12/20 09:49:21;;;;;;;0.77;0.50;;;;;;;;;;4212346;28;20040;-36
2021/12/20 09:51:22;;;;;;;0.68;0.50;;;;;;;;;;4207496;28;20419;-35
2021/12/20 09:53:24;;;;;;;0.60;0.50;;;;;;;;;;4203056;28;20063;-34
2021/12/20 09:55:25;;;;;;;0.60;0.50;;;;;;;;;;4186797;28;20128;-35
2021/12/20 09:57:26;;;;;;;2.80;0.57;;;;;;;;;;4212142;28;20124;-34
2021/12/20 09:59:28;;;;;;;0.77;0.55;;;;;;;;;;4206353;28;20044;-35
2021/12/20 10:01:29;;;;;;;3.25;0.68;;;;;;;;;;4192393;28;20060;-35
2021/12/20 10:03:30;;;;;;;2.05;0.70;;;;;;;;;;4205551;28;20074;-35
2021/12/20 10:05:32;;;;;;;1.27;0.40;;;;;;;;;;4202793;28;20094;-38
2021/12/20 10:07:33;;;;;;;1.10;0.60;;;;;;;;;;4190876;28;20484;-35
2021/12/20 10:09:36;;;;;;;0.85;0.40;;;;;;;;;;4203131;28;20102;-35
2021/12/20 10:11:38;;;;;;;1.20;0.68;;;;;;;;;;4208233;28;20101;-35
2021/12/20 10:13:39;;;;;;;1.02;0.55;;;;;;;;;;4209293;28;20060;-35
2021/12/20 10:15:40;;;;;;;4.47;0.40;;;;;;;;;;4185280;28;20445;-35
2021/12/20 10:17:55;;;;;;;0.90;0.40;;;;;;;;;;4213595;28;20047;-35
2021/12/20 10:20:11;;;;;;;1.33;0.40;;;;;;;;;;4205099;28;20500;-35
2021/12/20 10:22:28;;;;;;;0.70;0.40;;;;;;;;;;4211197;28;20059;-34
2021/12/20 10:24:33;;;;;;;0.98;0.47;;;;;;;;;;4203315;28;20543;-42
2021/12/20 10:26:38;;;;;;;1.00;0.38;;;;;;;;;;4203850;28;20538;-42
2021/12/20 10:28:40;;;;;;;2.50;0.50;;;;;;;;;;4204560;28;20047;-42
2021/12/20 10:30:42;;;;;;;0.80;0.40;;;;;;;;;;4190874;28;20052;-42
2021/12/20 10:32:44;;;;;;;2.72;0.43;;;;;;;;;;4201651;28;20056;-43
2021/12/20 10:34:45;;;;;;;1.20;0.80;;;;;;;;;;4208161;28;20406;-42
2021/12/20 10:36:54;;;;;;;0.73;0.30;;;;;;;;;;4209892;28;20055;-43
2021/12/20 10:38:58;;;;;;;0.57;0.30;;;;;;;;;;4207119;28;20398;-44
2021/12/20 10:41:10;;;;;;;2.58;0.50;;;;;;;;;;4201884;28;20105;-42
2021/12/20 10:43:14;;;;;;;2.33;0.43;;;;;;;;;;4205181;28;20055;-43
2021/12/20 10:45:18;;;;;;;1.02;0.35;;;;;;;;;;4209359;28;20408;-42
2021/12/20 10:47:26;;;;;;;0.40;0.30;;;;;;;;;;4202886;28;20040;-43
2021/12/20 10:49:29;;;;;;;1.55;0.68;;;;;;;;;;4205387;28;20105;-42
2021/12/20 10:51:32;;;;;;;0.40;0.20;;;;;;;;;;4201884;28;20136;-42
2021/12/20 10:53:33;;;;;;;1.08;0.40;;;;;;;;;;4209016;28;20051;-41
2021/12/20 10:55:39;;;;;;;0.77;0.30;;;;;;;;;;4200737;28;20056;-43
2021/12/20 10:57:40;;;;;;;0.50;0.35;;;;;;;;;;4210444;28;20089;-43
2021/12/20 10:59:41;;;;;;;1.20;0.30;;;;;;;;;;4206786;28;20060;-43
2021/12/20 11:02:10;;;;;;;0.20;0.20;;;;;;;;;;4205155;28;20084;-43
2021/12/20 11:04:11;;;;;;;2.35;0.30;;;;;;;;;;4203822;28;20619;-43
2021/12/20 11:10:41;;;;;;;0.57;0.38;;;;;;;;;;4203966;28;20042;-42
2021/12/20 11:12:42;;;;;;;0.40;0.30;;;;;;;;;;4197723;28;20059;-43
2021/12/20 11:14:44;;;;;;;0.43;0.22;;;;;;;;;;4200065;28;20624;-42
2021/12/20 11:16:46;;;;;;;0.73;0.30;;;;;;;;;;4183545;28;20045;-42
2021/12/20 11:19:07;;;;;;;0.45;0.32;;;;;;;;;;4206595;28;20480;-42
2021/12/20 11:21:12;;;;;;;0.40;0.13;;;;;;;;;;4207372;28;20052;-43
2021/12/20 11:23:24;;;;;;;0.30;0.20;;;;;;;;;;4186344;28;20061;-42
2021/12/20 11:25:25;;;;;;;0.55;0.25;;;;;;;;;;4203093;28;20048;-43
2021/12/20 11:27:32;;;;;;;0.40;0.20;;;;;;;;;;4209960;28;20111;-42
2021/12/20 11:29:33;;;;;;;0.82;0.40;;;;;;;;;;4206665;28;20052;-41
2021/12/20 11:31:34;;;;;;;0.30;0.20;;;;;;;;;;4200272;28;20079;-42
2021/12/20 11:33:35;;;;;;;1.85;0.40;;;;;;;;;;4184548;28;20384;-43
2021/12/20 11:35:36;;;;;;;0.80;0.30;;;;;;;;;;4203970;28;20044;-43
2021/12/20 11:37:37;;;;;;;1.95;0.20;;;;;;;;;;4205484;28;20091;-43
2021/12/20 11:39:38;;;;;;;1.27;0.30;;;;;;;;;;4205557;28;20525;-42
2021/12/20 11:41:39;;;;;;;0.28;0.20;;;;;;;;;;4200414;28;20708;-43
2021/12/20 11:43:40;;;;;;;0.73;0.30;;;;;;;;;;4205287;28;20063;-42
2021/12/20 11:45:41;;;;;;;0.55;0.35;;;;;;;;;;4187165;28;20440;-43
2021/12/20 11:47:56;;;;;;;0.45;0.30;;;;;;;;;;4203182;28;20142;-43
2021/12/20 11:49:59;;;;;;;1.35;0.40;;;;;;;;;;4186350;28;20049;-43
2021/12/20 11:52:02;;;;;;;3.15;0.40;;;;;;;;;;4192288;28;20064;-43
2021/12/20 11:54:03;;;;;;;0.20;0.13;;;;;;;;;;4199317;28;20051;-43
2021/12/20 11:56:05;;;;;;;0.77;0.20;;;;;;;;;;4199051;28;20508;-43
2021/12/20 11:58:16;;;;;;;0.52;0.13;;;;;;;;;;4203081;28;20044;-43
2021/12/20 12:00:19;;;;;;;0.35;0.22;;;;;;;;;;4201290;28;20089;-43
2021/12/20 12:02:21;;;;;;;0.28;0.10;;;;;;;;;;4196143;28;20052;-43
2021/12/20 12:04:23;;;;;;;0.32;0.20;;;;;;;;;;4198004;28;20056;-43
2021/12/20 12:06:28;;;;;;;1.00;0.32;;;;;;;;;;4199741;28;20117;-42
2021/12/20 12:08:31;;;;;;;0.40;0.20;;;;;;;;;;4199298;28;20470;-43
2021/12/20 12:10:32;;;;;;;0.38;0.20;;;;;;;;;;4200678;28;20048;-43
2021/12/20 12:12:39;;;;;;;0.40;0.20;;;;;;;;;;4201117;28;20093;-42
2021/12/20 12:15:02;;;;;;;0.57;0.20;;;;;;;;;;4203912;28;20387;-43
2021/12/20 12:17:06;;;;;;;0.70;0.20;;;;;;;;;;4185262;28;20396;-42
2021/12/20 12:19:08;;;;;;;1.17;0.30;;;;;;;;;;4196162;28;20693;-43
2021/12/20 12:21:29;;;;;;;0.35;0.22;;;;;;;;;;4199285;28;20687;-43
2021/12/20 12:23:42;;;;;;;0.85;0.43;;;;;;;;;;4202154;28;20059;-42
2021/12/20 12:25:46;;;;;;;0.63;0.30;;;;;;;;;;4179890;28;20445;-43
2021/12/20 12:27:56;;;;;;;1.48;0.30;;;;;;;;;;4180007;28;20048;-43
2021/12/20 12:30:12;;;;;;;0.50;0.20;;;;;;;;;;4198861;28;20120;-43